sensor_id;sensor_type;location;lat;lon;timestamp;pressure;altitude;pressure_sealevel;temperature;humidity
55311;BME280;41173;52.634;-8.666;2023-12-20T16:44:35;101370.34;;;9.39;100.00
55311;BME280;41173;52.634;-8.666;2023-12-20T16:47:01;101309.38;;;9.89;100.00
55311;BME280;41173;52.634;-8.666;2023-12-20T16:49:26;101292.22;;;10.06;100.00
55311;BME280;41173;52.634;-8.666;2023-12-20T16:51:52;101319.84;;;10.27;100.00
55311;BME280;41173;52.634;-8.666;2023-12-20T16:54:17;101244.75;;;10.41;100.00
55311;BME280;41173;52.634;-8.666;2023-12-20T16:56:42;101236.19;;;10.53;100.00
55311;BME280;41173;52.634;-8.666;2023-12-20T16:59:08;101227.56;;;10.60;100.00
55311;BME280;41173;52.634;-8.666;2023-12-20T17:01:34;101231.00;;;10.56;100.00
55311;BME280;41173;52.634;-8.666;2023-12-20T17:04:00;101242.41;;;10.57;100.00
55311;BME280;41173;52.634;-8.666;2023-12-20T17:06:26;101260.78;;;10.55;100.00
55311;BME280;41173;52.634;-8.666;2023-12-20T17:08:52;101261.69;;;10.57;100.00
55311;BME280;41173;52.634;-8.666;2023-12-20T17:11:19;101268.72;;;10.57;100.00
55311;BME280;41173;52.634;-8.666;2023-12-20T17:13:46;101279.41;;;10.64;100.00
55311;BME280;41173;52.634;-8.666;2023-12-20T17:16:11;101281.16;;;10.65;100.00
55311;BME280;41173;52.634;-8.666;2023-12-20T17:18:37;101290.03;;;10.70;100.00
55311;BME280;41173;52.634;-8.666;2023-12-20T17:21:05;101281.22;;;10.68;100.00
55311;BME280;41173;52.634;-8.666;2023-12-20T17:23:30;101288.28;;;10.71;100.00
55311;BME280;41173;52.634;-8.666;2023-12-20T17:25:56;101298.78;;;10.68;100.00
55311;BME280;41173;52.634;-8.666;2023-12-20T17:28:22;101306.75;;;10.72;100.00
55311;BME280;41173;52.634;-8.666;2023-12-20T17:30:47;101298.84;;;10.72;100.00
55311;BME280;41173;52.634;-8.666;2023-12-20T17:33:14;101313.94;;;10.81;100.00
55311;BME280;41173;52.634;-8.666;2023-12-20T17:35:39;101316.63;;;10.84;100.00
55311;BME280;41173;52.634;-8.666;2023-12-20T17:38:05;101319.19;;;10.81;100.00
55311;BME280;41173;52.634;-8.666;2023-12-20T17:40:30;101327.09;;;10.80;100.00
55311;BME280;41173;52.634;-8.666;2023-12-20T17:42:55;101337.66;;;10.83;100.00
55311;BME280;41173;52.634;-8.666;2023-12-20T17:45:21;101345.56;;;10.83;100.00
55311;BME280;41173;52.634;-8.666;2023-12-20T17:47:47;101342.78;;;10.75;100.00
55311;BME280;41173;52.634;-8.666;2023-12-20T17:50:12;101354.25;;;10.79;100.00
55311;BME280;41173;52.634;-8.666;2023-12-20T17:52:38;101344.72;;;10.84;100.00
55311;BME280;41173;52.634;-8.666;2023-12-20T17:55:04;101357.00;;;10.83;100.00
55311;BME280;41173;52.634;-8.666;2023-12-20T17:57:29;101365.88;;;10.88;100.00
55311;BME280;41173;52.634;-8.666;2023-12-20T17:59:55;101383.47;;;10.91;100.00
55311;BME280;41173;52.634;-8.666;2023-12-20T18:02:20;101379.97;;;10.92;100.00
55311;BME280;41173;52.634;-8.666;2023-12-20T18:04:46;101370.31;;;10.93;100.00
55311;BME280;41173;52.634;-8.666;2023-12-20T18:07:12;101367.78;;;10.97;100.00
55311;BME280;41173;52.634;-8.666;2023-12-20T18:09:37;101360.78;;;10.98;100.00
55311;BME280;41173;52.634;-8.666;2023-12-20T18:12:03;101360.84;;;11.01;100.00
55311;BME280;41173;52.634;-8.666;2023-12-20T18:14:32;101365.91;;;10.91;100.00
55311;BME280;41173;52.634;-8.666;2023-12-20T18:16:57;101363.38;;;10.96;100.00
55311;BME280;41173;52.634;-8.666;2023-12-20T18:19:23;101361.63;;;10.97;100.00
55311;BME280;41173;52.634;-8.666;2023-12-20T18:21:48;101365.88;;;10.88;100.00
55311;BME280;41173;52.634;-8.666;2023-12-20T18:24:13;101368.75;;;11.01;100.00
55311;BME280;41173;52.634;-8.666;2023-12-20T18:26:39;101360.00;;;11.03;100.00
55311;BME280;41173;52.634;-8.666;2023-12-20T18:29:05;101374.94;;;11.04;100.00
55311;BME280;41173;52.634;-8.666;2023-12-20T18:31:30;101383.72;;;11.05;100.00
55311;BME280;41173;52.634;-8.666;2023-12-20T18:33:56;101366.22;;;11.08;100.00
55311;BME280;41173;52.634;-8.666;2023-12-20T18:36:21;101374.94;;;11.04;100.00
55311;BME280;41173;52.634;-8.666;2023-12-20T18:38:47;101381.19;;;11.09;100.00
55311;BME280;41173;52.634;-8.666;2023-12-20T18:41:12;101370.72;;;11.14;100.00
55311;BME280;41173;52.634;-8.666;2023-12-20T18:43:40;101372.47;;;11.14;100.00
55311;BME280;41173;52.634;-8.666;2023-12-20T18:46:05;101362.75;;;11.09;100.00
55311;BME280;41173;52.634;-8.666;2023-12-20T18:48:31;101376.75;;;11.08;100.00
55311;BME280;41173;52.634;-8.666;2023-12-20T18:50:58;101382.94;;;11.10;100.00
55311;BME280;41173;52.634;-8.666;2023-12-20T18:53:23;101369.72;;;11.06;100.00
55311;BME280;41173;52.634;-8.666;2023-12-20T18:55:49;101371.50;;;11.08;100.00
55311;BME280;41173;52.634;-8.666;2023-12-20T18:58:14;101379.41;;;11.08;100.00
55311;BME280;41173;52.634;-8.666;2023-12-20T19:00:40;101385.69;;;11.15;100.00
55311;BME280;41173;52.634;-8.666;2023-12-20T19:03:05;101397.09;;;11.16;100.00
55311;BME280;41173;52.634;-8.666;2023-12-20T19:05:32;101392.75;;;11.18;100.00
55311;BME280;41173;52.634;-8.666;2023-12-20T19:07:58;101395.34;;;11.15;100.00
55311;BME280;41173;52.634;-8.666;2023-12-20T19:10:23;101397.94;;;11.13;100.00
55311;BME280;41173;52.634;-8.666;2023-12-20T19:12:49;101410.31;;;11.19;100.00
55311;BME280;41173;52.634;-8.666;2023-12-20T19:15:14;101399.84;;;11.22;100.00
55311;BME280;41173;52.634;-8.666;2023-12-20T19:17:40;101411.31;;;11.24;100.00
55311;BME280;41173;52.634;-8.666;2023-12-20T19:20:06;101394.53;;;11.19;100.00
55311;BME280;41173;52.634;-8.666;2023-12-20T19:22:32;101416.63;;;11.27;100.00
55311;BME280;41173;52.634;-8.666;2023-12-20T19:24:59;101406.97;;;11.27;100.00
55311;BME280;41173;52.634;-8.666;2023-12-20T19:27:33;101420.13;;;11.26;100.00
55311;BME280;41173;52.634;-8.666;2023-12-20T19:29:59;101425.34;;;11.24;100.00
55311;BME280;41173;52.634;-8.666;2023-12-20T19:32:25;101421.81;;;11.22;100.00
55311;BME280;41173;52.634;-8.666;2023-12-20T19:34:50;101428.16;;;11.32;100.00
55311;BME280;41173;52.634;-8.666;2023-12-20T19:37:17;101442.34;;;11.39;100.00
55311;BME280;41173;52.634;-8.666;2023-12-20T19:39:43;101426.47;;;11.36;100.00
55311;BME280;41173;52.634;-8.666;2023-12-20T19:42:08;101427.34;;;11.36;100.00
55311;BME280;41173;52.634;-8.666;2023-12-20T19:44:34;101424.72;;;11.38;100.00
55311;BME280;41173;52.634;-8.666;2023-12-20T19:46:59;101425.47;;;11.31;100.00
55311;BME280;41173;52.634;-8.666;2023-12-20T19:49:25;101426.41;;;11.33;100.00
55311;BME280;41173;52.634;-8.666;2023-12-20T19:51:50;101425.50;;;11.32;100.00
55311;BME280;41173;52.634;-8.666;2023-12-20T19:54:15;101435.31;;;11.39;100.00
55311;BME280;41173;52.634;-8.666;2023-12-20T19:56:41;101432.66;;;11.39;100.00
55311;BME280;41173;52.634;-8.666;2023-12-20T19:59:06;101430.94;;;11.41;100.00
55311;BME280;41173;52.634;-8.666;2023-12-20T20:01:32;101422.94;;;11.35;100.00
55311;BME280;41173;52.634;-8.666;2023-12-20T20:04:00;101434.50;;;11.43;100.00
55311;BME280;41173;52.634;-8.666;2023-12-20T20:06:26;101427.47;;;11.42;100.00
55311;BME280;41173;52.634;-8.666;2023-12-20T20:08:51;101416.97;;;11.45;100.00
55311;BME280;41173;52.634;-8.666;2023-12-20T20:11:17;101417.66;;;11.37;100.00
55311;BME280;41173;52.634;-8.666;2023-12-20T20:13:42;101412.47;;;11.40;100.00
55311;BME280;41173;52.634;-8.666;2023-12-20T20:16:08;101431.81;;;11.40;100.00
55311;BME280;41173;52.634;-8.666;2023-12-20T20:18:33;101437.88;;;11.36;100.00
55311;BME280;41173;52.634;-8.666;2023-12-20T20:20:58;101443.09;;;11.33;100.00
55311;BME280;41173;52.634;-8.666;2023-12-20T20:23:24;101438.84;;;11.41;100.00
55311;BME280;41173;52.634;-8.666;2023-12-20T20:25:49;101437.19;;;11.46;100.00
55311;BME280;41173;52.634;-8.666;2023-12-20T20:28:15;101441.50;;;11.43;100.00
55311;BME280;41173;52.634;-8.666;2023-12-20T20:30:41;101450.44;;;11.50;100.00
55311;BME280;41173;52.634;-8.666;2023-12-20T20:33:06;101422.28;;;11.48;100.00
55311;BME280;41173;52.634;-8.666;2023-12-20T20:35:32;101424.91;;;11.48;100.00
55311;BME280;41173;52.634;-8.666;2023-12-20T20:37:57;101445.16;;;11.50;100.00
55311;BME280;41173;52.634;-8.666;2023-12-20T20:40:23;101438.91;;;11.44;100.00
55311;BME280;41173;52.634;-8.666;2023-12-20T20:42:48;101427.50;;;11.44;100.00
55311;BME280;41173;52.634;-8.666;2023-12-20T20:45:13;101432.16;;;11.60;100.00
55311;BME280;41173;52.634;-8.666;2023-12-20T20:47:40;101422.69;;;11.70;100.00
55311;BME280;41173;52.634;-8.666;2023-12-20T20:50:07;101413.75;;;11.62;100.00
55311;BME280;41173;52.634;-8.666;2023-12-20T20:52:32;101426.78;;;11.53;100.00
55311;BME280;41173;52.634;-8.666;2023-12-20T20:54:58;101411.00;;;11.54;100.00
55311;BME280;41173;52.634;-8.666;2023-12-20T20:57:24;101406.53;;;11.52;100.00
55311;BME280;41173;52.634;-8.666;2023-12-20T20:59:50;101417.19;;;11.58;100.00
55311;BME280;41173;52.634;-8.666;2023-12-20T21:02:15;101397.94;;;11.62;100.00
55311;BME280;41173;52.634;-8.666;2023-12-20T21:04:41;101407.56;;;11.60;100.00
55311;BME280;41173;52.634;-8.666;2023-12-20T21:07:07;101398.72;;;11.56;100.00
55311;BME280;41173;52.634;-8.666;2023-12-20T21:09:32;101397.06;;;11.63;100.00
55311;BME280;41173;52.634;-8.666;2023-12-20T21:11:57;101406.69;;;11.61;100.00
55311;BME280;41173;52.634;-8.666;2023-12-20T21:14:23;101406.59;;;11.55;100.00
55311;BME280;41173;52.634;-8.666;2023-12-20T21:16:48;101430.41;;;11.59;100.00
55311;BME280;41173;52.634;-8.666;2023-12-20T21:19:14;101418.19;;;11.64;100.00
55311;BME280;41173;52.634;-8.666;2023-12-20T21:21:39;101424.31;;;11.63;100.00
55311;BME280;41173;52.634;-8.666;2023-12-20T21:24:04;101426.00;;;11.60;100.00
55311;BME280;41173;52.634;-8.666;2023-12-20T21:26:30;101419.84;;;11.61;100.00
55311;BME280;41173;52.634;-8.666;2023-12-20T21:28:55;101418.00;;;11.55;100.00
55311;BME280;41173;52.634;-8.666;2023-12-20T21:31:21;101427.59;;;11.50;100.00
55311;BME280;41173;52.634;-8.666;2023-12-20T21:33:47;101414.63;;;11.62;100.00
55311;BME280;41173;52.634;-8.666;2023-12-20T21:36:13;101405.03;;;11.67;100.00
55311;BME280;41173;52.634;-8.666;2023-12-20T21:38:44;101397.84;;;11.57;100.00
55311;BME280;41173;52.634;-8.666;2023-12-20T21:41:10;101408.34;;;11.56;100.00
55311;BME280;41173;52.634;-8.666;2023-12-20T21:43:35;101410.03;;;11.51;100.00
55311;BME280;41173;52.634;-8.666;2023-12-20T21:46:01;101402.25;;;11.58;100.00
55311;BME280;41173;52.634;-8.666;2023-12-20T21:48:27;101408.47;;;11.62;100.00
55311;BME280;41173;52.634;-8.666;2023-12-20T21:50:52;101389.19;;;11.66;100.00
55311;BME280;41173;52.634;-8.666;2023-12-20T21:53:18;101390.06;;;11.65;100.00
55311;BME280;41173;52.634;-8.666;2023-12-20T21:55:43;101381.22;;;11.61;100.00
55311;BME280;41173;52.634;-8.666;2023-12-20T21:58:09;101394.41;;;11.61;100.00
55311;BME280;41173;52.634;-8.666;2023-12-20T22:00:35;101403.19;;;11.62;100.00
55311;BME280;41173;52.634;-8.666;2023-12-20T22:03:01;101390.94;;;11.65;100.00
55311;BME280;41173;52.634;-8.666;2023-12-20T22:05:28;101392.63;;;11.60;100.00
55311;BME280;41173;52.634;-8.666;2023-12-20T22:07:56;101390.03;;;11.63;100.00
55311;BME280;41173;52.634;-8.666;2023-12-20T22:10:21;101381.44;;;11.74;100.00
55311;BME280;41173;52.634;-8.666;2023-12-20T22:12:47;101372.56;;;11.69;100.00
55311;BME280;41173;52.634;-8.666;2023-12-20T22:15:12;101389.28;;;11.71;100.00
55311;BME280;41173;52.634;-8.666;2023-12-20T22:17:38;101371.69;;;11.68;100.00
55311;BME280;41173;52.634;-8.666;2023-12-20T22:20:04;101348.94;;;11.76;100.00
55311;BME280;41173;52.634;-8.666;2023-12-20T22:22:29;101355.91;;;11.73;100.00
55311;BME280;41173;52.634;-8.666;2023-12-20T22:24:55;101347.31;;;11.84;100.00
55311;BME280;41173;52.634;-8.666;2023-12-20T22:27:20;101364.72;;;11.73;100.00
55311;BME280;41173;52.634;-8.666;2023-12-20T22:29:46;101377.97;;;11.78;100.00
55311;BME280;41173;52.634;-8.666;2023-12-20T22:32:12;101399.97;;;11.80;100.00
55311;BME280;41173;52.634;-8.666;2023-12-20T22:34:37;101387.69;;;11.80;100.00
55311;BME280;41173;52.634;-8.666;2023-12-20T22:37:03;101358.72;;;11.85;100.00
55311;BME280;41173;52.634;-8.666;2023-12-20T22:39:29;101372.69;;;11.78;100.00
55311;BME280;41173;52.634;-8.666;2023-12-20T22:41:54;101365.78;;;11.86;100.00
55311;BME280;41173;52.634;-8.666;2023-12-20T22:44:19;101357.84;;;11.83;100.00
55311;BME280;41173;52.634;-8.666;2023-12-20T22:46:45;101369.28;;;11.83;100.00
55311;BME280;41173;52.634;-8.666;2023-12-20T22:49:10;101358.72;;;11.82;100.00
55311;BME280;41173;52.634;-8.666;2023-12-20T22:51:36;101363.97;;;11.80;100.00
55311;BME280;41173;52.634;-8.666;2023-12-20T22:54:01;101377.84;;;11.70;100.00
55311;BME280;41173;52.634;-8.666;2023-12-20T22:56:27;101381.47;;;11.75;100.00
55311;BME280;41173;52.634;-8.666;2023-12-20T22:58:52;101397.28;;;11.75;100.00
55311;BME280;41173;52.634;-8.666;2023-12-20T23:01:18;101396.44;;;11.79;100.00
55311;BME280;41173;52.634;-8.666;2023-12-20T23:03:46;101414.16;;;11.88;100.00
55311;BME280;41173;52.634;-8.666;2023-12-20T23:06:12;101407.13;;;11.89;100.00
55311;BME280;41173;52.634;-8.666;2023-12-20T23:08:37;101422.09;;;11.88;100.00
55311;BME280;41173;52.634;-8.666;2023-12-20T23:11:03;101402.72;;;11.86;100.00
55311;BME280;41173;52.634;-8.666;2023-12-20T23:13:29;101409.81;;;11.90;100.00
55311;BME280;41173;52.634;-8.666;2023-12-20T23:15:54;101411.44;;;11.82;100.00
55311;BME280;41173;52.634;-8.666;2023-12-20T23:18:20;101390.31;;;11.80;100.00
55311;BME280;41173;52.634;-8.666;2023-12-20T23:20:45;101391.03;;;11.70;100.00
55311;BME280;41173;52.634;-8.666;2023-12-20T23:23:12;101396.56;;;11.85;100.00
55311;BME280;41173;52.634;-8.666;2023-12-20T23:25:37;101375.47;;;11.85;100.00
55311;BME280;41173;52.634;-8.666;2023-12-20T23:28:03;101398.25;;;11.80;100.00
